Main page
METAR-TAF:

METAR-TAF

Airports :

Fleming-Mason Airport

Flemingsburg, Kentucky, United States

latitude: 38-32-30N, longitude: 083-44-36W, elevation: 912 ft

Current weather observation

The report was made 25 minutes ago, at 11:35 UTC
Wind 7 mph from the South/Southwest
Temperature 30°F
Humidity 50%
Pressure 30.22 in. Hg
Visibility: 10 miles
Clear sky

METAR: KFGX 231135Z AUTO 20006KT 10SM CLR M01/M10 A3022 RMK AO2 T10101098

Time: 07:00 (12:00 UTC)


TAF: missing

Weather observations and forecasts of more than 4000 airports (METAR and TAF reports).

The available stations are represented by yellow and red dots on the map.

Hover mouse over dot to see the name of the station.

Then click to see weather observations and forecasts.

To change the map : click on the green buttons with a black cross to zoom in, on the green button with a dash to zoom out, or on the green arrows for adjacent maps.


METAR-TAF: